Time;durP1;ratioP1;P1;durP2;ratioP2;P2;SDS_P1;SDS_P2;PMS_P1;PMS_P2;Temp;Humidity;BMP_temperature;BMP_pressure;BME280_temperature;BME280_humidity;BME280_pressure;Samples;Min_cycle;Max_cycle;Signal;HPM_P1;HPM_P2
2023/01/05 00:01:47;;;;;;;23.40;3.42;;;;;;;13.84;65.24;101694.66;4997998;28;20049;-42
2023/01/05 00:04:13;;;;;;;28.10;3.80;;;;;;;13.36;66.63;101703.56;5004393;28;20040;-41
2023/01/05 00:06:39;;;;;;;29.35;4.38;;;;;;;13.33;66.90;101702.66;5001260;28;20064;-41
2023/01/05 00:09:06;;;;;;;23.77;4.40;;;;;;;13.40;66.24;101707.13;5003213;28;20046;-41
2023/01/05 00:22:46;;;;;;;24.37;3.90;;;;;;;13.40;66.62;101694.91;4998385;28;20080;-41
2023/01/05 00:25:14;;;;;;;31.48;4.47;;;;;;;13.48;66.83;101688.91;5002450;28;20360;-42
2023/01/05 00:27:41;;;;;;;27.17;3.72;;;;;;;13.38;66.96;101694.00;4998837;28;20149;-44
2023/01/05 00:30:08;;;;;;;22.60;3.72;;;;;;;13.49;66.72;101691.53;5002687;28;20029;-42
2023/01/05 00:32:34;;;;;;;28.73;3.97;;;;;;;13.60;66.00;101691.72;4996739;28;20046;-41
2023/01/05 00:35:01;;;;;;;26.83;4.07;;;;;;;13.66;65.95;101692.66;5001743;28;20502;-40
2023/01/05 00:37:29;;;;;;;28.48;4.28;;;;;;;13.54;65.99;101695.09;5002451;28;20034;-42
2023/01/05 00:39:55;;;;;;;22.10;3.35;;;;;;;13.31;66.78;101705.25;5001893;28;20061;-42
2023/01/05 00:42:21;;;;;;;25.38;3.60;;;;;;;13.45;66.49;101692.34;5005312;28;20117;-44
2023/01/05 00:44:46;;;;;;;25.23;3.72;;;;;;;13.32;67.05;101699.16;5002424;28;20137;-41
2023/01/05 00:47:12;;;;;;;24.73;3.70;;;;;;;13.34;66.64;101714.91;5005267;28;20042;-42
2023/01/05 00:49:37;;;;;;;28.25;4.40;;;;;;;13.30;67.40;101716.56;5001801;28;20045;-40
2023/01/05 00:52:03;;;;;;;25.67;4.55;;;;;;;13.55;66.72;101709.06;5005525;28;20039;-41
2023/01/05 00:54:28;;;;;;;27.95;4.00;;;;;;;13.24;67.82;101705.13;5006796;28;20095;-42
2023/01/05 00:56:54;;;;;;;25.05;3.85;;;;;;;13.40;67.29;101717.59;5002824;28;20046;-42
2023/01/05 00:59:19;;;;;;;27.48;3.90;;;;;;;13.28;68.10;101726.16;5006039;28;20494;-42
2023/01/05 01:01:45;;;;;;;29.52;4.22;;;;;;;13.47;67.29;101726.44;5001314;28;20449;-41
2023/01/05 01:04:11;;;;;;;30.00;3.85;;;;;;;13.52;66.93;101724.75;5006228;28;20049;-42
2023/01/05 01:06:37;;;;;;;28.98;4.15;;;;;;;13.53;67.21;101732.66;5001661;28;20034;-43
2023/01/05 01:09:02;;;;;;;24.98;4.00;;;;;;;13.43;67.96;101735.97;5005695;28;20037;-41
2023/01/05 01:11:28;;;;;;;25.27;4.20;;;;;;;13.50;67.77;101736.94;5004767;28;20173;-42
2023/01/05 01:13:53;;;;;;;33.08;4.50;;;;;;;13.49;67.54;101743.94;5001397;28;20121;-41
2023/01/05 01:16:19;;;;;;;28.45;4.28;;;;;;;13.32;68.32;101746.28;5003619;28;20085;-42
2023/01/05 01:18:44;;;;;;;26.92;4.47;;;;;;;13.31;68.58;101747.13;5001327;28;20042;-42
2023/01/05 01:21:09;;;;;;;29.05;4.47;;;;;;;13.47;68.14;101750.91;5004277;28;20065;-40
2023/01/05 01:23:38;;;;;;;31.10;4.25;;;;;;;13.22;68.96;101749.63;5001041;28;20445;-42
2023/01/05 01:26:08;;;;;;;28.80;4.53;;;;;;;13.47;68.17;101744.78;5005427;28;20045;-42
2023/01/05 01:28:34;;;;;;;23.95;3.88;;;;;;;13.17;68.93;101759.16;5000932;28;20116;-41
2023/01/05 01:31:00;;;;;;;30.42;4.13;;;;;;;13.57;68.28;101759.78;5005223;28;20463;-43
2023/01/05 01:33:26;;;;;;;24.77;3.90;;;;;;;13.25;68.87;101764.50;5005704;28;20096;-42
2023/01/05 01:35:52;;;;;;;25.60;4.15;;;;;;;13.32;68.84;101756.75;5002602;28;20041;-41
2023/01/05 01:38:17;;;;;;;25.38;3.97;;;;;;;13.17;69.63;101763.50;5006643;28;20050;-40
2023/01/05 01:40:45;;;;;;;26.98;3.90;;;;;;;13.06;69.56;101767.59;5001908;28;20060;-42
2023/01/05 01:43:38;;;;;;;34.80;4.43;;;;;;;13.25;69.38;101774.97;5007552;28;20038;-43
2023/01/05 01:46:03;;;;;;;27.55;4.07;;;;;;;13.15;69.44;101771.31;5005720;28;20046;-42
2023/01/05 01:48:28;;;;;;;22.88;4.00;;;;;;;13.02;69.64;101791.13;5006861;28;20030;-43
2023/01/05 01:50:55;;;;;;;27.02;4.75;;;;;;;13.30;68.79;101787.28;5000768;28;20462;-40
2023/01/05 01:53:27;;;;;;;28.67;4.00;;;;;;;13.07;69.42;101790.31;5005763;28;20049;-42
2023/01/05 01:55:56;;;;;;;27.80;4.25;;;;;;;13.26;69.10;101787.22;5002325;28;22294;-42
2023/01/05 01:58:27;;;;;;;28.17;4.25;;;;;;;13.33;68.04;101796.94;5006023;28;20209;-42
2023/01/05 02:00:53;;;;;;;28.42;3.90;;;;;;;13.09;69.58;101799.97;4999955;28;20058;-41
2023/01/05 02:03:18;;;;;;;27.35;4.50;;;;;;;13.40;68.35;101789.22;5005213;28;20053;-42
2023/01/05 02:05:43;;;;;;;27.90;4.25;;;;;;;13.20;68.72;101793.22;5002579;28;20112;-41
2023/01/05 02:08:12;;;;;;;31.85;3.95;;;;;;;13.16;69.03;101790.53;5007135;28;20042;-41
2023/01/05 02:10:46;;;;;;;24.15;4.03;;;;;;;12.93;69.51;101795.31;5002232;28;20541;-41
2023/01/05 02:13:29;;;;;;;27.55;3.95;;;;;;;13.28;68.57;101799.47;5005926;28;20510;-41
2023/01/05 02:16:17;;;;;;;28.23;3.78;;;;;;;13.11;69.16;101784.31;5001209;28;20049;-41
2023/01/05 02:19:12;;;;;;;28.23;3.90;;;;;;;13.20;68.89;101795.84;5001392;28;20161;-42
2023/01/05 02:21:40;;;;;;;;;;;;;;;13.19;68.64;101801.03;5000437;28;20044;-42
2023/01/05 02:24:23;;;;;;;28.88;4.00;;;;;;;12.94;69.46;101797.94;5008132;28;19913;-42
2023/01/05 02:27:21;;;;;;;22.60;4.00;;;;;;;12.95;69.80;101783.13;5001486;28;20042;-42
2023/01/05 02:30:25;;;;;;;23.10;3.65;;;;;;;13.33;68.83;101783.84;4984754;28;20038;-41
2023/01/05 02:33:04;;;;;;;24.58;3.58;;;;;;;12.92;70.04;101802.31;5001345;28;20026;-41
2023/01/05 02:35:42;;;;;;;23.90;4.13;;;;;;;12.86;70.24;101796.06;5005122;28;20034;-42
2023/01/05 02:38:14;;;;;;;26.38;3.95;;;;;;;13.01;69.00;101786.75;5001168;28;20041;-42
2023/01/05 02:40:46;;;;;;;23.33;3.67;;;;;;;12.90;69.98;101796.16;4999443;28;20034;-43
2023/01/05 02:43:19;;;;;;;23.38;4.20;;;;;;;13.19;68.98;101795.81;5003216;28;20037;-41
2023/01/05 02:45:45;;;;;;;26.52;3.95;;;;;;;13.12;69.14;101807.00;4999892;28;20038;-41
2023/01/05 02:48:10;;;;;;;23.63;3.58;;;;;;;13.16;69.04;101799.28;5004426;28;20033;-43
2023/01/05 02:50:45;;;;;;;22.08;4.13;;;;;;;13.14;68.99;101790.50;5001805;28;20036;-42
2023/01/05 02:53:23;;;;;;;26.40;3.38;;;;;;;13.19;68.92;101798.44;5005219;28;20061;-42
2023/01/05 02:55:55;;;;;;;20.95;3.50;;;;;;;12.90;69.67;101792.66;5006695;28;20057;-41
2023/01/05 02:58:27;;;;;;;23.70;4.00;;;;;;;12.98;69.33;101778.84;5001102;28;20068;-41
2023/01/05 03:00:59;;;;;;;22.10;4.00;;;;;;;13.21;68.90;101778.41;5001589;28;20594;-43
2023/01/05 03:03:39;;;;;;;24.13;3.55;;;;;;;13.31;68.77;101786.44;5004768;28;20034;-42
2023/01/05 03:06:15;;;;;;;22.83;3.97;;;;;;;13.06;69.02;101786.81;5003214;28;20129;-41
2023/01/05 03:08:49;;;;;;;24.00;3.60;;;;;;;13.36;68.66;101776.00;5004364;28;20518;-41
2023/01/05 03:14:17;;;;;;;25.58;3.65;;;;;;;13.28;68.79;101786.38;5003778;28;20599;-41
2023/01/05 03:16:47;;;;;;;25.25;4.28;;;;;;;13.31;69.12;101794.28;5003394;28;20042;-42
2023/01/05 03:36:05;;;;;;;25.23;3.72;;;;;;;13.53;68.26;101806.00;4999416;28;20056;-41
2023/01/05 03:38:37;;;;;;;23.27;4.10;;;;;;;12.96;69.75;101805.84;5002783;28;20125;-40
2023/01/05 03:41:08;;;;;;;28.55;4.35;;;;;;;13.35;69.20;101797.84;4998320;28;20471;-41
2023/01/05 03:43:35;;;;;;;21.23;3.92;;;;;;;13.15;69.66;101817.56;4998535;28;20084;-42
2023/01/05 03:46:14;;;;;;;28.38;4.25;;;;;;;13.46;69.12;101811.13;5002628;28;20038;-40
2023/01/05 03:48:40;;;;;;;25.50;3.42;;;;;;;13.36;69.07;101808.34;4999378;28;20120;-42
2023/01/05 03:51:06;;;;;;;27.20;4.07;;;;;;;13.20;69.25;101821.16;5002314;28;20048;-44
2023/01/05 03:53:31;;;;;;;30.33;4.28;;;;;;;13.24;69.08;101810.75;5002744;28;20523;-41
2023/01/05 03:55:56;;;;;;;24.70;3.63;;;;;;;13.28;69.51;101820.44;4999513;28;20067;-42
2023/01/05 03:58:22;;;;;;;28.20;3.75;;;;;;;13.63;68.39;101812.25;5003193;28;20128;-41
2023/01/05 04:00:47;;;;;;;26.70;3.90;;;;;;;13.53;68.55;101811.25;4998445;28;20137;-44
2023/01/05 04:03:12;;;;;;;23.38;3.55;;;;;;;13.32;68.89;101824.84;5002693;28;20381;-41
2023/01/05 04:05:38;;;;;;;25.27;3.72;;;;;;;13.56;68.67;101815.63;4999118;28;20057;-40
2023/01/05 04:08:03;;;;;;;31.83;4.40;;;;;;;13.26;69.59;101821.25;4985411;28;20388;-40
2023/01/05 04:10:29;;;;;;;26.00;3.88;;;;;;;13.14;70.07;101821.91;5001963;28;20510;-39
2023/01/05 04:12:54;;;;;;;29.05;3.90;;;;;;;13.39;69.40;101820.63;4999747;28;20030;-40
2023/01/05 04:15:19;;;;;;;27.20;3.85;;;;;;;13.11;70.01;101818.34;5007263;28;20034;-40
2023/01/05 04:17:45;;;;;;;24.77;3.80;;;;;;;13.47;69.11;101812.88;5003481;28;20033;-40
2023/01/05 04:20:10;;;;;;;23.88;3.80;;;;;;;13.53;68.54;101820.84;5006653;28;20038;-38
2023/01/05 04:22:36;;;;;;;22.90;3.47;;;;;;;13.21;69.55;101826.41;5003006;28;20037;-44
2023/01/05 04:25:01;;;;;;;31.13;4.30;;;;;;;13.67;68.59;101828.06;5008886;28;20068;-40
2023/01/05 04:27:26;;;;;;;23.67;4.20;;;;;;;13.26;69.51;101832.59;5006752;28;20049;-43
2023/01/05 04:29:52;;;;;;;27.55;4.03;;;;;;;13.36;69.31;101818.81;5003528;28;20037;-40
2023/01/05 04:32:17;;;;;;;32.35;4.38;;;;;;;13.31;69.89;101825.72;5007022;28;20096;-39
2023/01/05 04:34:42;;;;;;;24.92;3.67;;;;;;;13.55;68.62;101832.22;5003484;28;20030;-40
2023/01/05 04:37:08;;;;;;;30.90;3.95;;;;;;;13.46;69.18;101824.22;5007864;28;20045;-41
2023/01/05 04:39:33;;;;;;;24.17;4.03;;;;;;;13.44;68.98;101829.41;5004769;28;20338;-57
2023/01/05 04:41:58;;;;;;;28.00;3.63;;;;;;;13.26;69.88;101835.22;5007455;28;20034;-41
2023/01/05 04:44:23;;;;;;;24.52;3.88;;;;;;;13.16;69.99;101832.44;5006318;28;20026;-40
2023/01/05 04:46:49;;;;;;;25.00;3.97;;;;;;;13.40;68.92;101823.25;5003076;28;20037;-42
2023/01/05 04:49:14;;;;;;;29.50;4.00;;;;;;;13.43;69.05;101837.25;5006493;28;20038;-39
2023/01/05 04:51:39;;;;;;;24.88;3.95;;;;;;;13.30;69.54;101838.78;5002349;28;20414;-45
2023/01/05 04:54:05;;;;;;;28.67;4.20;;;;;;;13.61;68.81;101835.81;5006959;28;20389;-40
2023/01/05 04:56:30;;;;;;;31.00;4.35;;;;;;;13.06;70.25;101849.66;5007111;28;20128;-42
2023/01/05 04:58:55;;;;;;;26.73;4.00;;;;;;;13.40;69.33;101838.97;5001665;28;20038;-41
2023/01/05 05:01:21;;;;;;;27.85;4.20;;;;;;;13.69;68.26;101856.91;5005944;28;20034;-42
2023/01/05 05:03:46;;;;;;;24.67;3.80;;;;;;;13.60;68.78;101849.75;5000674;28;20517;-40
2023/01/05 05:06:11;;;;;;;29.85;3.85;;;;;;;13.56;68.50;101844.47;5005149;28;20449;-39
2023/01/05 05:08:36;;;;;;;30.45;4.15;;;;;;;13.48;69.00;101853.94;5001388;28;20049;-40
2023/01/05 05:11:02;;;;;;;28.10;4.20;;;;;;;13.47;69.00;101860.03;5004226;28;20520;-39
2023/01/05 05:13:28;;;;;;;25.30;3.47;;;;;;;13.39;69.35;101850.31;5005109;28;20454;-40
2023/01/05 05:15:53;;;;;;;28.38;4.30;;;;;;;13.37;69.84;101861.59;5000087;28;20398;-42
2023/01/05 05:18:20;;;;;;;33.63;4.93;;;;;;;13.14;70.07;101876.00;5003418;28;20062;-40
2023/01/05 05:20:49;;;;;;;31.98;4.32;;;;;;;13.39;69.31;101857.28;5001563;28;20049;-42
2023/01/05 05:23:15;;;;;;;24.80;4.15;;;;;;;13.26;69.70;101856.19;5005287;28;20034;-39
2023/01/05 05:25:40;;;;;;;25.92;4.60;;;;;;;13.16;70.00;101863.84;5001638;28;20045;-41
2023/01/05 05:28:05;;;;;;;25.20;3.50;;;;;;;13.10;70.46;101876.78;5005707;28;20029;-44
2023/01/05 05:30:31;;;;;;;26.60;4.07;;;;;;;13.20;70.21;101876.13;5003823;28;20322;-40
2023/01/05 05:32:56;;;;;;;27.95;4.22;;;;;;;13.30;69.88;101868.47;5001286;28;20030;-42
2023/01/05 05:35:21;;;;;;;30.17;4.15;;;;;;;13.20;70.32;101873.50;5004775;28;20038;-42
2023/01/05 05:37:47;;;;;;;28.58;4.20;;;;;;;13.48;69.10;101874.91;4999738;28;20038;-42
2023/01/05 05:40:12;;;;;;;26.05;3.60;;;;;;;13.45;68.99;101873.09;5004082;28;20117;-45
2023/01/05 05:42:37;;;;;;;28.83;4.07;;;;;;;13.20;69.70;101873.50;5000546;28;20049;-40
2023/01/05 05:45:03;;;;;;;25.75;3.70;;;;;;;13.52;68.87;101882.84;5004500;28;20030;-44
2023/01/05 05:47:28;;;;;;;29.52;4.63;;;;;;;13.49;68.63;101888.00;5004589;28;20038;-40
2023/01/05 05:49:54;;;;;;;29.15;4.00;;;;;;;13.75;67.76;101888.47;5000881;28;20038;-40
2023/01/05 05:52:19;;;;;;;24.83;3.78;;;;;;;13.45;68.98;101894.06;5003791;28;20038;-41
2023/01/05 05:54:44;;;;;;;29.50;3.63;;;;;;;13.27;69.32;101894.59;5000878;28;20125;-40
2023/01/05 05:57:10;;;;;;;25.50;4.10;;;;;;;13.35;68.89;101895.66;5004207;28;20037;-42
2023/01/05 05:59:35;;;;;;;29.17;3.97;;;;;;;13.59;68.25;101896.94;5000888;28;20045;-43
2023/01/05 06:02:00;;;;;;;32.22;4.07;;;;;;;13.60;68.11;101896.06;5003468;28;20111;-38
2023/01/05 06:04:26;;;;;;;21.92;3.70;;;;;;;13.55;67.86;101902.94;5004570;28;20049;-42
2023/01/05 06:06:51;;;;;;;32.53;4.57;;;;;;;13.32;68.71;101911.28;5000552;28;20498;-42
2023/01/05 06:09:16;;;;;;;34.72;4.30;;;;;;;13.45;68.43;101906.28;5002858;28;20064;-40
2023/01/05 06:11:42;;;;;;;33.22;4.40;;;;;;;13.25;69.15;101908.50;4999725;28;20517;-41
2023/01/05 06:14:07;;;;;;;23.48;3.60;;;;;;;13.75;67.61;101912.03;5004197;28;20037;-41
2023/01/05 06:16:32;;;;;;;28.27;4.00;;;;;;;13.42;68.57;101928.03;5004502;28;20102;-42
2023/01/05 06:18:58;;;;;;;27.75;4.20;;;;;;;13.41;68.13;101926.31;5000626;28;20044;-40
2023/01/05 06:21:23;;;;;;;26.33;3.95;;;;;;;13.58;68.40;101929.22;5003674;28;20045;-40
2023/01/05 06:23:48;;;;;;;26.42;3.60;;;;;;;13.93;66.90;101924.56;5000869;28;20045;-42
2023/01/05 06:26:14;;;;;;;23.00;3.90;;;;;;;13.40;67.90;101937.63;5004454;28;20084;-41
2023/01/05 06:28:39;;;;;;;25.83;4.18;;;;;;;13.50;68.07;101939.56;5000620;28;20365;-40
2023/01/05 06:31:05;;;;;;;25.65;4.00;;;;;;;13.44;68.62;101942.06;5003197;28;20041;-41
2023/01/05 06:33:30;;;;;;;23.70;3.63;;;;;;;13.97;66.37;101945.63;5004100;28;20072;-40
2023/01/05 06:35:57;;;;;;;29.83;4.43;;;;;;;13.67;67.29;101947.72;4999591;28;20045;-43
2023/01/05 06:38:23;;;;;;;26.40;3.67;;;;;;;13.53;67.62;101947.50;5003956;28;20037;-40
2023/01/05 06:40:48;;;;;;;24.85;4.03;;;;;;;13.48;67.81;101958.75;4999334;28;20030;-41
2023/01/05 06:43:14;;;;;;;26.15;4.03;;;;;;;13.54;67.99;101964.09;5003521;28;20037;-42
2023/01/05 06:45:39;;;;;;;25.30;3.80;;;;;;;13.69;67.07;101962.63;5000734;28;20104;-39
2023/01/05 06:48:04;;;;;;;30.75;4.38;;;;;;;13.31;68.70;101967.13;5004436;28;20046;-41
2023/01/05 06:50:30;;;;;;;28.73;4.20;;;;;;;13.27;68.38;101967.06;5003905;28;20076;-40
2023/01/05 06:52:57;;;;;;;32.45;3.92;;;;;;;13.27;68.69;101973.19;5000886;28;20100;-40
2023/01/05 06:55:22;;;;;;;23.45;3.60;;;;;;;13.93;66.43;101964.78;5002681;28;20432;-39
2023/01/05 06:57:47;;;;;;;35.63;4.70;;;;;;;13.38;68.11;101973.38;4999303;28;20030;-41
2023/01/05 07:00:14;;;;;;;32.53;4.32;;;;;;;13.41;68.31;101981.31;5003607;28;20513;-43
2023/01/05 07:02:39;;;;;;;26.90;4.00;;;;;;;13.24;69.14;101972.22;4999250;28;20065;-42
2023/01/05 07:05:06;;;;;;;28.48;3.67;;;;;;;13.22;68.66;101976.56;5004020;28;20495;-39
2023/01/05 07:07:31;;;;;;;30.65;3.95;;;;;;;12.95;69.75;101979.44;5003813;28;20052;-42
2023/01/05 07:09:57;;;;;;;31.63;4.47;;;;;;;12.94;69.84;101983.78;5000595;28;20442;-39
2023/01/05 07:12:22;;;;;;;25.50;3.75;;;;;;;12.86;69.99;101980.16;5003311;28;20036;-43
2023/01/05 07:14:48;;;;;;;27.27;4.40;;;;;;;12.97;69.90;101985.59;5000337;28;20041;-41
2023/01/05 07:17:13;;;;;;;27.45;3.80;;;;;;;12.68;70.39;101982.38;5003705;28;20117;-40
2023/01/05 07:19:38;;;;;;;28.13;4.10;;;;;;;12.99;69.78;101979.53;5004191;28;20125;-42
2023/01/05 07:22:04;;;;;;;25.52;4.07;;;;;;;13.12;69.23;101982.41;4999873;28;20038;-41
2023/01/05 07:24:29;;;;;;;26.55;4.13;;;;;;;13.16;69.04;101987.78;5004088;28;20334;-40
2023/01/05 07:26:54;;;;;;;33.05;4.20;;;;;;;12.88;69.96;101988.91;4999520;28;20379;-42
2023/01/05 07:29:20;;;;;;;25.67;4.18;;;;;;;13.02;69.64;102005.78;5003483;28;20037;-42
2023/01/05 07:31:46;;;;;;;30.92;5.10;;;;;;;12.93;69.85;102000.34;4998821;28;20506;-40
2023/01/05 07:34:12;;;;;;;29.08;4.63;;;;;;;12.93;69.38;102007.31;5004092;28;20080;-40
2023/01/05 07:36:37;;;;;;;33.25;4.97;;;;;;;12.95;69.78;102005.63;5000838;28;20518;-41
2023/01/05 07:39:03;;;;;;;29.33;4.35;;;;;;;12.84;70.41;102002.78;5005445;28;20042;-43
2023/01/05 07:41:28;;;;;;;26.30;3.83;;;;;;;13.12;69.67;102006.88;5004896;28;20046;-42
2023/01/05 07:43:53;;;;;;;28.55;4.22;;;;;;;12.95;69.63;102006.50;4999582;28;20121;-40
2023/01/05 07:46:19;;;;;;;31.52;4.43;;;;;;;12.87;70.40;102005.44;5002574;28;20037;-40
2023/01/05 07:48:44;;;;;;;26.45;3.90;;;;;;;12.86;70.44;102005.44;5000110;28;20065;-40
2023/01/05 07:51:10;;;;;;;29.77;4.68;;;;;;;12.63;70.71;102007.50;5006019;28;20523;-42
2023/01/05 07:53:37;;;;;;;26.15;4.55;;;;;;;12.96;69.86;102010.91;5003544;28;20697;-40
2023/01/05 07:56:04;;;;;;;27.95;4.30;;;;;;;12.58;71.15;102024.84;5005592;28;20473;-41
2023/01/05 07:58:29;;;;;;;32.03;3.95;;;;;;;12.86;70.18;102029.88;5006188;28;20069;-40
2023/01/05 08:00:55;;;;;;;28.90;4.25;;;;;;;12.84;69.93;102028.94;5001411;28;20058;-40
2023/01/05 08:03:20;;;;;;;29.33;4.32;;;;;;;12.80;70.46;102034.97;5005939;28;20064;-43
2023/01/05 08:05:46;;;;;;;30.70;4.15;;;;;;;12.99;69.62;102028.41;5001197;28;20459;-40
2023/01/05 08:08:12;;;;;;;26.08;4.13;;;;;;;12.74;69.95;102032.22;5006217;28;20045;-41
2023/01/05 08:10:42;;;;;;;24.25;3.97;;;;;;;12.85;69.35;102025.47;5002268;28;20120;-40
2023/01/05 08:15:54;;;;;;;27.13;4.07;;;;;;;12.83;70.04;102031.53;5002567;28;23533;-44
2023/01/05 08:18:20;;;;;;;28.65;3.88;;;;;;;12.83;69.87;102042.00;5005967;28;20508;-41
2023/01/05 08:20:57;;;;;;;28.63;4.30;;;;;;;13.02;69.59;102050.28;5001398;28;20034;-41
2023/01/05 08:23:26;;;;;;;26.42;3.75;;;;;;;12.93;69.40;102046.56;5004412;28;20125;-41
2023/01/05 08:25:52;;;;;;;24.42;3.70;;;;;;;13.24;68.49;102051.66;5002557;28;20117;-43
2023/01/05 08:28:18;;;;;;;28.02;4.00;;;;;;;13.16;68.35;102062.84;5005093;28;20046;-47
2023/01/05 08:30:43;;;;;;;28.40;4.55;;;;;;;13.06;69.25;102066.06;5001935;28;20133;-40
2023/01/05 08:33:09;;;;;;;26.05;3.78;;;;;;;13.04;68.94;102067.78;5006060;28;20089;-40
2023/01/05 08:35:39;;;;;;;25.63;4.05;;;;;;;13.16;68.62;102068.97;5001765;28;20041;-42
2023/01/05 08:38:05;;;;;;;34.22;4.30;;;;;;;13.50;67.40;102070.53;5005858;28;20107;-41
2023/01/05 08:40:30;;;;;;;28.25;4.28;;;;;;;12.85;69.06;102071.72;5005075;28;20372;-40
2023/01/05 08:42:56;;;;;;;26.15;3.70;;;;;;;13.42;67.89;102085.22;5002635;28;20099;-41
2023/01/05 08:45:21;;;;;;;27.88;3.88;;;;;;;13.12;68.67;102079.28;5006632;28;20038;-42
2023/01/05 08:47:46;;;;;;;31.30;3.97;;;;;;;13.37;67.38;102081.63;5002366;28;20038;-42
2023/01/05 08:50:12;;;;;;;27.08;3.70;;;;;;;13.25;67.74;102097.06;5006296;28;20784;-39
2023/01/05 08:52:38;;;;;;;30.85;3.88;;;;;;;13.54;66.79;102087.22;5001419;28;20045;-44
2023/01/05 08:55:06;;;;;;;28.52;3.97;;;;;;;13.42;67.78;102094.84;5005118;28;20038;-42
2023/01/05 08:57:32;;;;;;;27.08;3.95;;;;;;;13.63;67.04;102090.91;5006067;28;20060;-40
2023/01/05 08:59:57;;;;;;;26.10;3.50;;;;;;;13.47;67.47;102091.47;5001334;28;20482;-41
2023/01/05 09:02:23;;;;;;;24.90;4.22;;;;;;;13.26;68.09;102097.09;5004595;28;20042;-40
2023/01/05 09:04:48;;;;;;;22.00;4.15;;;;;;;13.25;68.26;102091.81;5001227;28;20124;-41
2023/01/05 09:07:13;;;;;;;25.13;3.58;;;;;;;13.37;67.61;102092.09;5005428;28;20038;-40
2023/01/05 09:09:39;;;;;;;26.98;4.00;;;;;;;13.73;66.61;102091.97;5001663;28;20073;-40
2023/01/05 09:12:04;;;;;;;30.65;3.90;;;;;;;13.70;66.86;102097.16;5004225;28;20038;-42
2023/01/05 09:14:30;;;;;;;32.67;4.13;;;;;;;13.57;67.12;102106.50;5005216;28;20117;-45
2023/01/05 09:16:55;;;;;;;21.33;3.58;;;;;;;13.65;67.39;102106.66;5001380;28;20033;-42
2023/01/05 09:19:21;;;;;;;24.63;3.78;;;;;;;13.59;67.02;102101.31;5006135;28;20168;-41
2023/01/05 09:21:46;;;;;;;28.05;3.80;;;;;;;13.16;68.38;102094.25;5001700;28;20050;-43
2023/01/05 09:24:11;;;;;;;25.85;4.32;;;;;;;13.56;67.02;102109.97;5007052;28;20052;-40
2023/01/05 09:26:38;;;;;;;19.50;3.20;;;;;;;13.86;66.49;102109.69;5004155;28;20042;-42
2023/01/05 09:29:03;;;;;;;24.83;4.28;;;;;;;13.59;66.93;102106.53;5006189;28;20038;-43
2023/01/05 09:31:28;;;;;;;21.13;3.42;;;;;;;13.96;65.60;102103.81;5005738;28;20038;-40
2023/01/05 09:33:56;;;;;;;29.27;4.60;;;;;;;13.55;67.34;102107.31;5002694;28;20029;-42
2023/01/05 09:36:23;;;;;;;28.02;3.85;;;;;;;13.57;67.01;102100.38;5006674;28;20048;-41
2023/01/05 09:38:49;;;;;;;24.67;4.22;;;;;;;13.48;67.36;102119.41;5001159;28;20049;-42
2023/01/05 09:41:22;;;;;;;27.30;5.10;;;;;;;13.86;65.93;102114.06;5003585;28;20125;-40
2023/01/05 09:43:51;;;;;;;24.00;3.85;;;;;;;13.80;66.36;102123.56;5000857;28;20034;-44
2023/01/05 09:46:28;;;;;;;28.25;4.45;;;;;;;13.47;67.42;102125.50;5005190;28;20469;-41
2023/01/05 09:48:58;;;;;;;22.80;3.40;;;;;;;13.93;66.08;102124.69;5000912;28;20061;-44
2023/01/05 09:51:23;;;;;;;26.00;4.68;;;;;;;13.82;66.60;102136.72;5004148;28;20060;-41
2023/01/05 09:53:49;;;;;;;28.33;4.50;;;;;;;14.11;65.66;102137.28;4998909;28;20538;-40
2023/01/05 09:56:25;;;;;;;25.98;4.43;;;;;;;13.78;66.66;102138.38;5005122;28;20034;-42
2023/01/05 09:58:52;;;;;;;32.55;4.38;;;;;;;13.82;66.57;102147.19;5000873;28;20034;-42
2023/01/05 10:01:20;;;;;;;28.15;4.10;;;;;;;13.50;67.85;102151.75;5004558;28;20041;-41
2023/01/05 10:04:02;;;;;;;28.17;4.45;;;;;;;13.79;66.69;102150.63;5002729;28;20026;-40
2023/01/05 10:06:39;;;;;;;26.67;4.10;;;;;;;14.29;65.53;102152.47;5007506;28;20038;-41
2023/01/05 10:09:06;;;;;;;30.02;4.63;;;;;;;14.49;64.58;102154.66;5004140;28;20072;-41
2023/01/05 10:14:26;;;;;;;27.05;4.13;;;;;;;14.14;66.14;102156.59;5004208;28;20048;-39
2023/01/05 10:16:51;;;;;;;30.42;4.60;;;;;;;13.85;67.13;102154.22;5002856;28;20037;-43
2023/01/05 10:19:19;;;;;;;26.60;3.75;;;;;;;14.22;66.16;102157.59;5005314;28;20297;-40
2023/01/05 10:21:59;;;;;;;24.58;4.43;;;;;;;13.96;67.07;102150.09;5002847;28;20041;-41
2023/01/05 10:24:31;;;;;;;29.20;4.30;;;;;;;14.32;66.04;102153.44;4998651;28;20552;-41
2023/01/05 10:27:13;;;;;;;26.70;4.25;;;;;;;13.91;67.45;102157.84;5001890;28;20069;-41
2023/01/05 10:29:44;;;;;;;31.58;4.72;;;;;;;13.90;67.19;102161.34;5006601;28;20041;-38
2023/01/05 10:32:24;;;;;;;33.35;4.57;;;;;;;14.48;66.10;102159.88;5002211;28;20068;-39
2023/01/05 10:34:58;;;;;;;24.00;3.80;;;;;;;14.45;66.02;102152.84;5001695;28;20091;-43
2023/01/05 10:37:30;;;;;;;32.00;4.28;;;;;;;14.39;66.31;102165.84;5003995;28;20068;-40
2023/01/05 10:40:26;;;;;;;30.35;4.88;;;;;;;13.72;68.22;102151.34;4999752;28;20038;-41
2023/01/05 10:43:14;;;;;;;28.55;4.75;;;;;;;14.12;67.44;102155.66;4998644;28;20054;-40
2023/01/05 10:45:39;;;;;;;26.08;4.25;;;;;;;14.06;67.81;102158.19;4999887;28;20034;-40
2023/01/05 10:48:12;;;;;;;30.35;4.38;;;;;;;14.52;66.50;102159.94;5001416;28;20042;-40
2023/01/05 10:50:40;;;;;;;36.13;5.22;;;;;;;14.12;67.87;102154.78;4998824;28;20115;-39
2023/01/05 10:53:15;;;;;;;34.08;4.82;;;;;;;14.45;66.91;102157.19;5001803;28;20033;-39
2023/01/05 10:56:05;;;;;;;25.30;4.00;;;;;;;14.22;67.20;102160.22;4999371;28;20160;-41
2023/01/05 10:58:38;;;;;;;39.20;4.57;;;;;;;14.44;66.80;102152.81;5002392;28;20491;-38
2023/01/05 11:01:06;;;;;;;34.05;4.47;;;;;;;14.61;66.18;102160.09;4997679;28;20506;-40
2023/01/05 11:03:35;;;;;;;33.63;4.72;;;;;;;14.25;67.51;102167.28;5003677;28;20034;-45
2023/01/05 11:06:02;;;;;;;35.22;4.65;;;;;;;14.18;67.24;102163.66;4999978;28;20041;-43
2023/01/05 11:08:30;;;;;;;30.30;4.60;;;;;;;14.41;66.76;102155.34;5002947;28;20045;-39
2023/01/05 11:10:58;;;;;;;33.72;4.20;;;;;;;14.31;66.66;102156.03;4998912;28;20034;-39
2023/01/05 11:13:40;;;;;;;30.33;4.05;;;;;;;14.29;67.29;102153.34;5001426;28;20117;-40
2023/01/05 11:16:15;;;;;;;29.77;4.75;;;;;;;14.12;66.76;102152.16;4998505;28;20044;-39
2023/01/05 11:18:51;;;;;;;23.13;3.85;;;;;;;14.38;66.28;102148.34;4998275;28;20064;-40
2023/01/05 11:21:20;;;;;;;26.63;4.60;;;;;;;14.46;66.10;102153.69;5001718;28;20049;-40
2023/01/05 11:23:57;;;;;;;29.13;4.10;;;;;;;14.40;65.83;102138.72;4998805;28;20026;-39
2023/01/05 11:26:26;;;;;;;28.65;4.38;;;;;;;14.33;66.15;102142.09;5001349;28;20134;-42
2023/01/05 11:29:00;;;;;;;25.13;3.75;;;;;;;14.50;65.38;102137.16;4998467;28;20030;-38
2023/01/05 11:31:33;;;;;;;31.55;4.68;;;;;;;14.60;65.18;102128.59;5003254;28;20056;-41
2023/01/05 11:34:24;;;;;;;30.20;4.55;;;;;;;14.20;66.03;102126.97;4999638;28;20040;-42
2023/01/05 11:37:01;;;;;;;24.50;3.95;;;;;;;14.56;65.44;102126.78;4997895;28;20112;-37
2023/01/05 11:39:34;;;;;;;28.23;4.35;;;;;;;14.66;64.74;102125.16;5002338;28;20034;-39
2023/01/05 11:42:08;;;;;;;28.85;4.32;;;;;;;14.53;65.13;102118.84;4998457;28;20038;-39
2023/01/05 11:44:34;;;;;;;29.50;3.72;;;;;;;14.56;64.86;102127.66;4998887;28;20037;-40
2023/01/05 11:47:00;;;;;;;32.63;4.72;;;;;;;14.76;64.46;102127.09;5001327;28;20490;-42
2023/01/05 11:49:25;;;;;;;28.02;4.10;;;;;;;14.72;64.39;102126.16;5001656;28;20045;-40
2023/01/05 11:51:51;;;;;;;30.33;4.32;;;;;;;14.27;65.29;102130.59;4997029;28;20034;-43
2023/01/05 11:54:37;;;;;;;26.60;3.88;;;;;;;14.57;64.84;102139.03;5001993;28;20407;-39
2023/01/05 11:57:25;;;;;;;29.83;3.88;;;;;;;14.93;64.04;102121.25;4996290;28;20061;-39
2023/01/05 11:59:52;;;;;;;29.45;4.25;;;;;;;15.26;63.11;102128.72;4997997;28;20037;-43